QRA weather

Rand Airport
Johannesburg, Gauteng, South Africa

Public forecast

Using degrees Celsius for public forecast. Weather courtesy of forecast.io.

METAR (pilot weather report)

Report is more than 2 hours old.

Retrieved 2018/01/20 15:00 UTC (4 hours ago):

FAGM 201500Z 31010KT CAVOK 29/04 Q1020

TAF (pilot weather forecast)

Forecast is more than 12 hours old.

Closest forecast is OR Tambo International Airport, 8.0 nm (14.9 km) NE. Retrieved 2018/01/18 00:00 UTC (3 days ago):

TAF FAOR 182200Z 1900/2006 36007KT CAVOK BECMG 1916/1918 30005KT SCT045 PROB30 TEMPO 1918/1921 -TSRA FEW040CB BECMG 1921/1923 16012KT BECMG 2003/2005 36005KT CAVOK TX30/1914Z TN17/2003Z